Sea Amore — H9OC — position and weather

sailwx.info

Track history (hours):
 
Tides and Currents Weather Stations Pressure Air Temp Water Temp Dewpoint Dewpoint Depression Visibility Wind Speed Wind Dir Waves Ship Positions

Sea Amore

Last reported at 2014-Oct-30 15:27 UTC. Time now 2014-Oct-30 15:57 UTC.
Position N 46°29' E 030°45'.

Length 148 m; draft 5 m.

Type: Cargo ship. MMSI: 357019000.

Date/timePositionNaut miles runAvg speedWind from/ knotsBaromVisibWave heightAir tempDewpointWater temp
2014-Oct-30 15:27N 46°29' E 030°45'0 0.0
2014-Oct-30 12:30N 46°29' E 030°45'0 0.0
2014-Oct-30 11:12N 46°29' E 030°45'0 0.0
2014-Oct-30 09:06N 46°29' E 030°45'0 0.0
2014-Oct-30 00:24N 46°29' E 030°45'0 0.0
2014-Oct-29 23:27N 46°29' E 030°45'0 0.0
2014-Oct-29 22:30N 46°29' E 030°45'0 0.0
2014-Oct-29 21:24N 46°29' E 030°45'2 0.5
2014-Oct-29 18:11N 46°30' E 030°47'1 2.2
2014-Oct-29 17:33N 46°29' E 030°49'4 3.2
2014-Oct-29 16:17N 46°26' E 030°52'2411.7
2014-Oct-29 14:15N 46°02' E 030°54'1112.9
2014-Oct-29 13:23N 45°51' E 030°50'1112.7
2014-Oct-29 12:31N 45°41' E 030°47'24912.4
2014-Oct-28 16:30N 41°39' E 029°21'1111.5
2014-Oct-28 15:33N 41°29' E 029°18'1111.5
2014-Oct-28 14:33N 41°18' E 029°12'20 9.5
2014-Oct-28 12:28N 41°00' E 028°60'5 5.8
2014-Oct-28 11:33N 40°55' E 028°57'3 2.3
2014-Oct-28 10:26N 40°58' E 028°57'0 0.0
2014-Oct-28 08:32N 40°58' E 028°57'0 0.0
2014-Oct-28 07:32N 40°58' E 028°57'0 0.0
2014-Oct-28 04:20N 40°58' E 028°57'0 0.0
2014-Oct-28 03:32N 40°58' E 028°57'0 0.0
2014-Oct-28 02:32N 40°58' E 028°57'0 0.0
2014-Oct-28 01:32N 40°58' E 028°57'0 0.0
2014-Oct-28 00:08N 40°58' E 028°57'0 0.0
2014-Oct-27 23:26N 40°58' E 028°57'0 0.0
2014-Oct-27 22:32N 40°58' E 028°57'0 0.0
2014-Oct-27 21:26N 40°58' E 028°57'216 5.0
2014-Oct-26 02:33N 37°58' E 026°23'2014.0
2014-Oct-26 01:06N 37°40' E 026°34'2313.6
2014-Oct-25 23:26N 37°21' E 026°50'  
2014-Oct-20 16:13N 36°39' E 026°50'  
Track history (hours):
 
Tides and Currents Weather Stations Pressure Air Temp Water Temp Dewpoint Dewpoint Depression Visibility Wind Speed Wind Dir Waves Ship Positions

Sea Amore

Last reported at 2014-Oct-30 15:27 UTC. Time now 2014-Oct-30 15:57 UTC.
Position N 46°29' E 030°45'.

Length 148 m; draft 5 m.

Type: Cargo ship. MMSI: 357019000.

Date/timePositionNaut miles runAvg speedWind from/ knotsBaromVisibWave heightAir tempDewpointWater temp
2014-Oct-30 15:27N 46°29' E 030°45'0 0.0
2014-Oct-30 12:30N 46°29' E 030°45'0 0.0
2014-Oct-30 11:12N 46°29' E 030°45'0 0.0
2014-Oct-30 09:06N 46°29' E 030°45'0 0.0
2014-Oct-30 00:24N 46°29' E 030°45'0 0.0
2014-Oct-29 23:27N 46°29' E 030°45'0 0.0
2014-Oct-29 22:30N 46°29' E 030°45'0 0.0
2014-Oct-29 21:24N 46°29' E 030°45'2 0.5
2014-Oct-29 18:11N 46°30' E 030°47'1 2.2
2014-Oct-29 17:33N 46°29' E 030°49'4 3.2
2014-Oct-29 16:17N 46°26' E 030°52'2411.7
2014-Oct-29 14:15N 46°02' E 030°54'1112.9
2014-Oct-29 13:23N 45°51' E 030°50'1112.7
2014-Oct-29 12:31N 45°41' E 030°47'24912.4
2014-Oct-28 16:30N 41°39' E 029°21'1111.5
2014-Oct-28 15:33N 41°29' E 029°18'1111.5
2014-Oct-28 14:33N 41°18' E 029°12'20 9.5
2014-Oct-28 12:28N 41°00' E 028°60'5 5.8
2014-Oct-28 11:33N 40°55' E 028°57'3 2.3
2014-Oct-28 10:26N 40°58' E 028°57'0 0.0
2014-Oct-28 08:32N 40°58' E 028°57'0 0.0
2014-Oct-28 07:32N 40°58' E 028°57'0 0.0
2014-Oct-28 04:20N 40°58' E 028°57'0 0.0
2014-Oct-28 03:32N 40°58' E 028°57'0 0.0
2014-Oct-28 02:32N 40°58' E 028°57'0 0.0
2014-Oct-28 01:32N 40°58' E 028°57'0 0.0
2014-Oct-28 00:08N 40°58' E 028°57'0 0.0
2014-Oct-27 23:26N 40°58' E 028°57'0 0.0
2014-Oct-27 22:32N 40°58' E 028°57'0 0.0
2014-Oct-27 21:26N 40°58' E 028°57'216 5.0
2014-Oct-26 02:33N 37°58' E 026°23'2014.0
2014-Oct-26 01:06N 37°40' E 026°34'2313.6
2014-Oct-25 23:26N 37°21' E 026°50'  
2014-Oct-20 16:13N 36°39' E 026°50'  

Dump ship's entire track history